createdAt,value
2023-04-08T00:00:06.738Z,99828.15
2023-04-08T00:03:02.379Z,99830.36
2023-04-08T00:05:35.898Z,99831.50
2023-04-08T00:08:08.749Z,99829.95
2023-04-08T00:10:40.806Z,99831.69
2023-04-08T00:13:13.463Z,99834.53
2023-04-08T00:15:45.885Z,99835.20
2023-04-08T00:18:19.610Z,99833.49
2023-04-08T00:20:51.874Z,99828.63
2023-04-08T00:23:24.110Z,99829.34
2023-04-08T00:25:56.354Z,99831.00
2023-04-08T00:28:28.687Z,99839.20
2023-04-08T00:31:00.794Z,99838.10
2023-04-08T00:33:36.721Z,99839.15
2023-04-08T00:36:09.258Z,99839.79
2023-04-08T00:38:41.495Z,99843.98
2023-04-08T00:41:14.053Z,99845.23
2023-04-08T00:43:46.211Z,99839.93
2023-04-08T00:46:18.625Z,99836.83
2023-04-08T00:48:51.458Z,99842.31
2023-04-08T00:51:23.813Z,99848.42
2023-04-08T00:53:56.049Z,99847.59
2023-04-08T00:56:29.170Z,99854.19
2023-04-08T00:59:02.333Z,99855.05
2023-04-08T01:01:43.789Z,99858.62
2023-04-08T01:04:27.915Z,99863.06
2023-04-08T01:07:09.373Z,99867.35
2023-04-08T01:09:46.846Z,99870.16
2023-04-08T01:12:27.588Z,99873.35
2023-04-08T01:15:02.716Z,99876.73
2023-04-08T01:17:37.281Z,99879.33
2023-04-08T01:20:14.440Z,99878.71
2023-04-08T01:22:59.393Z,99881.12
2023-04-08T01:25:34.572Z,99883.90
2023-04-08T01:28:10.089Z,99884.56
2023-04-08T01:30:43.882Z,99885.60
2023-04-08T01:33:18.038Z,99884.80
2023-04-08T01:35:52.383Z,99890.52
2023-04-08T01:38:27.332Z,99888.19
2023-04-08T01:41:00.511Z,99888.65
2023-04-08T01:43:35.288Z,99886.96
2023-04-08T01:46:13.091Z,99887.75
2023-04-08T01:48:51.938Z,99889.73
2023-04-08T01:51:26.838Z,99888.95
2023-04-08T01:53:59.262Z,99893.42
2023-04-08T01:56:34.262Z,99893.63
2023-04-08T01:59:11.077Z,99898.26
2023-04-08T02:01:45.845Z,99898.39
2023-04-08T02:04:18.341Z,99900.77
2023-04-08T02:06:51.693Z,99903.69
2023-04-08T02:09:23.871Z,99906.73
2023-04-08T02:11:57.129Z,99905.63
2023-04-08T02:14:29.410Z,99909.16
2023-04-08T02:17:07.731Z,99913.23
2023-04-08T02:19:48.245Z,99917.85
2023-04-08T02:22:31.092Z,99920.86
2023-04-08T02:25:06.059Z,99922.45
2023-04-08T02:27:40.717Z,99926.02
2023-04-08T02:30:14.995Z,99926.81
2023-04-08T02:32:48.633Z,99927.85
2023-04-08T02:35:21.532Z,99930.88
2023-04-08T02:37:54.005Z,99931.35
2023-04-08T02:40:32.154Z,99927.66
2023-04-08T02:43:04.467Z,99928.67
2023-04-08T02:45:42.187Z,99930.52
2023-04-08T02:48:14.829Z,99930.96
2023-04-08T02:50:46.976Z,99930.89
2023-04-08T02:53:19.474Z,99936.52
2023-04-08T02:55:51.921Z,99940.73
2023-04-08T02:58:23.982Z,99943.54
2023-04-08T03:00:56.513Z,99947.71
2023-04-08T03:03:29.960Z,99945.40
2023-04-08T03:06:02.203Z,99948.00
2023-04-08T03:08:34.308Z,99951.21
2023-04-08T03:11:06.533Z,99950.95
2023-04-08T03:13:38.979Z,99950.73
2023-04-08T03:16:11.879Z,99952.42
2023-04-08T03:18:44.088Z,99950.96
2023-04-08T03:21:16.642Z,99955.75
2023-04-08T03:23:48.772Z,99953.97
2023-04-08T03:26:21.222Z,99953.84
2023-04-08T03:28:53.718Z,99954.66
2023-04-08T03:31:26.865Z,99956.94
2023-04-08T03:33:58.991Z,99956.88
2023-04-08T03:36:31.192Z,99957.98
2023-04-08T03:39:03.958Z,99955.98
2023-04-08T03:41:36.158Z,99954.55
2023-04-08T03:44:08.416Z,99958.48
2023-04-08T03:46:40.844Z,99960.07
2023-04-08T03:49:13.026Z,99960.03
2023-04-08T03:51:45.348Z,99964.23
2023-04-08T03:54:17.487Z,99963.77
2023-04-08T03:56:50.812Z,99971.05
2023-04-08T03:59:23.196Z,99974.97
2023-04-08T04:01:55.420Z,99976.06
2023-04-08T04:04:27.927Z,99979.83
2023-04-08T04:07:00.155Z,99980.08
2023-04-08T04:09:32.269Z,99985.50
2023-04-08T04:12:04.406Z,99989.05
2023-04-08T04:14:36.607Z,99992.14
2023-04-08T04:17:08.841Z,99991.77
2023-04-08T04:19:40.947Z,99997.20
2023-04-08T04:22:13.114Z,100000.98
2023-04-08T04:24:49.991Z,100001.46
2023-04-08T04:27:22.205Z,100005.53
2023-04-08T04:29:54.382Z,100007.33
2023-04-08T04:32:26.814Z,100009.15
2023-04-08T04:34:58.967Z,100012.75
2023-04-08T04:37:31.477Z,100014.23
2023-04-08T04:40:03.590Z,100018.29
2023-04-08T04:42:35.720Z,100020.60
2023-04-08T04:45:09.533Z,100022.27
2023-04-08T04:47:41.643Z,100021.90
2023-04-08T04:50:14.373Z,100022.69
2023-04-08T04:52:46.544Z,100024.06
2023-04-08T04:55:18.762Z,100023.91
2023-04-08T04:57:51.101Z,100026.34
2023-04-08T05:00:23.286Z,100031.31
2023-04-08T05:02:55.810Z,100029.54
2023-04-08T05:05:28.228Z,100032.89
2023-04-08T05:08:00.699Z,100038.02
2023-04-08T05:10:33.066Z,100041.80
2023-04-08T05:13:05.088Z,100044.59
2023-04-08T05:15:38.019Z,100047.40
2023-04-08T05:18:10.649Z,100052.41
2023-04-08T05:20:42.860Z,100054.52
2023-04-08T05:23:15.035Z,100052.39
2023-04-08T05:25:47.042Z,100054.69
2023-04-08T05:28:19.197Z,100056.08
2023-04-08T05:30:53.484Z,100059.98
2023-04-08T05:33:26.695Z,100064.21
2023-04-08T05:35:59.020Z,100069.48
2023-04-08T05:38:31.220Z,100071.15
2023-04-08T05:41:03.310Z,100073.59
2023-04-08T05:43:37.401Z,100076.48
2023-04-08T05:46:12.710Z,100079.50
2023-04-08T05:48:44.779Z,100086.06
2023-04-08T05:51:18.936Z,100087.63
2023-04-08T05:53:51.103Z,100089.98
2023-04-08T05:56:23.266Z,100095.14
2023-04-08T05:58:55.855Z,100098.20
2023-04-08T06:01:28.284Z,100101.67
2023-04-08T06:04:00.747Z,100109.73
2023-04-08T06:06:33.464Z,100107.45
2023-04-08T06:09:06.156Z,100112.09
2023-04-08T06:11:38.318Z,100110.14
2023-04-08T06:14:10.795Z,100111.31
2023-04-08T06:16:43.085Z,100116.27
2023-04-08T06:19:15.597Z,100119.70
2023-04-08T06:21:47.746Z,100127.48
2023-04-08T06:24:20.102Z,100128.73
2023-04-08T06:26:53.340Z,100130.34
2023-04-08T06:29:26.035Z,100136.30
2023-04-08T06:31:58.364Z,100135.63
2023-04-08T06:34:30.686Z,100136.71
2023-04-08T06:37:03.069Z,100134.73
2023-04-08T06:39:35.433Z,100139.33
2023-04-08T06:42:07.981Z,100144.77
2023-04-08T06:44:58.590Z,100156.48
2023-04-08T06:47:31.201Z,100154.31
2023-04-08T06:50:03.561Z,100152.66
2023-04-08T06:52:35.748Z,100156.67
2023-04-08T06:55:09.437Z,100158.48
2023-04-08T06:57:42.315Z,100158.73
2023-04-08T07:00:16.102Z,100160.98
2023-04-08T07:02:48.584Z,100162.45
2023-04-08T07:05:21.260Z,100165.39
2023-04-08T07:07:53.521Z,100165.15
2023-04-08T07:10:25.826Z,100172.45
2023-04-08T07:12:58.382Z,100174.79
2023-04-08T07:15:30.919Z,100177.60
2023-04-08T07:18:04.843Z,100182.16
2023-04-08T07:20:38.591Z,100186.65
2023-04-08T07:23:10.922Z,100185.52
2023-04-08T07:25:43.324Z,100185.41
2023-04-08T07:28:15.790Z,100193.77
2023-04-08T07:30:48.387Z,100186.73
2023-04-08T07:33:20.644Z,100191.24
2023-04-08T07:35:52.791Z,100186.91
2023-04-08T07:38:25.590Z,100188.34
2023-04-08T07:40:57.816Z,100197.23
2023-04-08T07:43:30.026Z,100195.75
2023-04-08T07:46:05.142Z,100199.21
2023-04-08T07:48:37.748Z,100197.98
2023-04-08T07:51:11.788Z,100204.05
2023-04-08T07:53:44.854Z,100201.27
2023-04-08T07:56:18.856Z,100198.98
2023-04-08T07:58:52.899Z,100203.84
2023-04-08T08:01:28.226Z,100203.10
2023-04-08T08:04:00.958Z,100207.80
2023-04-08T08:06:33.602Z,100206.71
2023-04-08T08:09:05.942Z,100210.70
2023-04-08T08:11:38.173Z,100214.73
2023-04-08T08:14:11.975Z,100212.85
2023-04-08T08:16:44.786Z,100216.70
2023-04-08T08:19:17.078Z,100210.03
2023-04-08T08:21:49.547Z,100209.30
2023-04-08T08:24:21.775Z,100213.14
2023-04-08T08:26:54.589Z,100213.59
2023-04-08T08:29:27.035Z,100215.67
2023-04-08T08:31:59.190Z,100216.03
2023-04-08T08:34:31.957Z,100220.97
2023-04-08T08:37:04.050Z,100223.60
2023-04-08T08:39:36.615Z,100222.16
2023-04-08T08:42:08.812Z,100224.89
2023-04-08T08:44:41.521Z,100223.02
2023-04-08T08:47:13.803Z,100225.04
2023-04-08T08:49:46.356Z,100227.05
2023-04-08T08:52:20.189Z,100223.45
2023-04-08T08:55:01.463Z,100226.04
2023-04-08T08:57:33.730Z,100227.33
2023-04-08T09:00:06.528Z,100229.69
2023-04-08T09:02:38.890Z,100233.27
2023-04-08T09:05:12.087Z,100231.94
2023-04-08T09:07:44.872Z,100232.90
2023-04-08T09:10:16.990Z,100236.83
2023-04-08T09:12:58.697Z,100238.15
2023-04-08T09:15:31.363Z,100243.35
2023-04-08T09:18:04.171Z,100251.77
2023-04-08T09:20:36.576Z,100253.75
2023-04-08T09:23:08.753Z,100250.94
2023-04-08T09:25:41.131Z,100249.64
2023-04-08T09:28:23.551Z,100248.02
2023-04-08T09:30:56.824Z,100250.77
2023-04-08T09:33:35.233Z,100251.35
2023-04-08T09:36:08.415Z,100252.92
2023-04-08T09:38:40.860Z,100247.85
2023-04-08T09:41:17.086Z,100248.29
2023-04-08T09:43:52.437Z,100253.73
2023-04-08T09:46:33.999Z,100253.73
2023-04-08T09:49:13.243Z,100250.58
2023-04-08T09:51:58.297Z,100255.60
2023-04-08T09:54:39.437Z,100257.29
2023-04-08T09:57:23.944Z,100247.45
2023-04-08T10:00:05.861Z,100244.97
2023-04-08T10:02:51.240Z,100246.30
2023-04-08T10:05:26.367Z,100241.41
2023-04-08T10:07:59.635Z,100241.14
2023-04-08T10:10:32.644Z,100239.92
2023-04-08T10:13:05.050Z,100238.83
2023-04-08T10:15:39.772Z,100240.20
2023-04-08T10:18:35.379Z,100239.63
2023-04-08T10:21:27.702Z,100239.03
2023-04-08T10:24:06.378Z,100241.77
2023-04-08T10:26:43.590Z,100244.96
2023-04-08T10:29:44.269Z,100244.86
2023-04-08T10:32:32.310Z,100240.40
2023-04-08T10:35:04.669Z,100241.91
2023-04-08T10:37:37.319Z,100235.33
2023-04-08T10:40:20.150Z,100230.96
2023-04-08T10:42:57.638Z,100227.55
2023-04-08T10:45:30.073Z,100222.77
2023-04-08T10:48:14.923Z,100219.77
2023-04-08T10:50:54.250Z,100217.41
2023-04-08T10:53:34.164Z,100214.65
2023-04-08T10:56:13.524Z,100213.03
2023-04-08T10:58:52.834Z,100218.29
2023-04-08T11:01:25.139Z,100215.92
2023-04-08T11:03:57.865Z,100219.96
2023-04-08T11:06:30.876Z,100215.17
2023-04-08T11:09:05.649Z,100219.82
2023-04-08T11:11:38.290Z,100219.13
2023-04-08T11:14:10.565Z,100218.13
2023-04-08T11:16:43.849Z,100210.63
2023-04-08T11:19:17.083Z,100208.68
2023-04-08T11:21:49.390Z,100208.98
2023-04-08T11:24:22.884Z,100208.88
2023-04-08T11:26:55.333Z,100211.45
2023-04-08T11:29:28.180Z,100210.30
2023-04-08T11:32:00.974Z,100212.89
2023-04-08T11:34:33.348Z,100212.20
2023-04-08T11:37:05.507Z,100209.91
2023-04-08T11:39:42.557Z,100210.26
2023-04-08T11:42:29.932Z,100212.04
2023-04-08T11:45:02.175Z,100212.80
2023-04-08T11:47:37.999Z,100214.45
2023-04-08T11:50:11.862Z,100212.09
2023-04-08T11:52:48.966Z,100214.52
2023-04-08T11:55:28.267Z,100215.42
2023-04-08T11:58:06.265Z,100220.58
2023-04-08T12:00:39.772Z,100221.20
2023-04-08T12:03:13.245Z,100215.42
2023-04-08T12:05:46.616Z,100217.53
2023-04-08T12:08:19.118Z,100213.90
2023-04-08T12:10:51.652Z,100214.55
2023-04-08T12:13:23.927Z,100212.09
2023-04-08T12:15:56.655Z,100206.36
2023-04-08T12:18:28.923Z,100204.35
2023-04-08T12:21:01.218Z,100203.56
2023-04-08T12:23:33.358Z,100201.14
2023-04-08T12:26:05.812Z,100203.59
2023-04-08T12:28:37.958Z,100203.63
2023-04-08T12:31:10.430Z,100202.80
2023-04-08T12:33:42.612Z,100210.38
2023-04-08T12:36:14.730Z,100209.79
2023-04-08T12:38:47.198Z,100211.29
2023-04-08T12:41:19.555Z,100211.08
2023-04-08T12:43:51.890Z,100216.14
2023-04-08T12:46:24.226Z,100208.19
2023-04-08T12:49:03.668Z,100208.00
2023-04-08T12:51:36.889Z,100211.80
2023-04-08T12:54:09.319Z,100211.58
2023-04-08T12:56:43.362Z,100206.95
2023-04-08T12:59:15.766Z,100209.65
2023-04-08T13:01:48.005Z,100206.41
2023-04-08T13:04:21.096Z,100213.02
2023-04-08T13:06:53.241Z,100212.84
2023-04-08T13:09:25.432Z,100216.16
2023-04-08T13:11:58.428Z,100216.27
2023-04-08T13:14:30.812Z,100215.71
2023-04-08T13:17:03.369Z,100223.13
2023-04-08T13:19:35.813Z,100225.78
2023-04-08T13:22:07.949Z,100225.23
2023-04-08T13:24:40.056Z,100222.04
2023-04-08T13:27:12.196Z,100226.47
2023-04-08T13:29:44.222Z,100226.51
2023-04-08T13:32:16.476Z,100230.36
2023-04-08T13:34:48.752Z,100227.95
2023-04-08T13:37:20.857Z,100228.80
2023-04-08T13:39:52.984Z,100227.73
2023-04-08T13:42:25.048Z,100228.58
2023-04-08T13:44:57.334Z,100226.25
2023-04-08T13:47:29.650Z,100227.27
2023-04-08T13:50:02.369Z,100229.36
2023-04-08T13:52:34.554Z,100229.60
2023-04-08T13:55:07.768Z,100234.49
2023-04-08T13:57:40.392Z,100234.80
2023-04-08T14:00:14.639Z,100235.14
2023-04-08T14:02:47.450Z,100232.84
2023-04-08T14:05:20.268Z,100238.34
2023-04-08T14:07:52.481Z,100237.84
2023-04-08T14:10:25.155Z,100238.92
2023-04-08T14:12:57.778Z,100238.10
2023-04-08T14:15:30.223Z,100234.98
2023-04-08T14:18:02.724Z,100238.27
2023-04-08T14:20:35.678Z,100241.23
2023-04-08T14:23:07.953Z,100241.45
2023-04-08T14:25:40.322Z,100239.98
2023-04-08T14:28:12.719Z,100239.91
2023-04-08T14:30:44.834Z,100242.63
2023-04-08T14:33:17.755Z,100245.48
2023-04-08T14:35:49.911Z,100239.77
2023-04-08T14:38:23.337Z,100241.84
2023-04-08T14:40:55.911Z,100240.41
2023-04-08T14:43:28.203Z,100240.57
2023-04-08T14:46:01.650Z,100244.98
2023-04-08T14:48:34.225Z,100250.02
2023-04-08T14:51:06.846Z,100255.17
2023-04-08T14:53:39.025Z,100254.75
2023-04-08T14:56:12.176Z,100255.70
2023-04-08T14:58:44.405Z,100254.81
2023-04-08T15:01:16.699Z,100252.61
2023-04-08T15:03:49.373Z,100251.66
2023-04-08T15:06:23.329Z,100252.70
2023-04-08T15:08:55.827Z,100254.15
2023-04-08T15:11:28.078Z,100260.61
2023-04-08T15:14:00.534Z,100266.11
2023-04-08T15:16:32.954Z,100265.23
2023-04-08T15:19:06.122Z,100267.70
2023-04-08T15:21:38.262Z,100263.71
2023-04-08T15:24:10.837Z,100264.92
2023-04-08T15:26:43.113Z,100264.98
2023-04-08T15:29:15.699Z,100266.35
2023-04-08T15:31:48.589Z,100268.95
2023-04-08T15:34:21.148Z,100268.88
2023-04-08T15:36:53.625Z,100269.60
2023-04-08T15:39:26.468Z,100277.73
2023-04-08T15:41:58.794Z,100281.27
2023-04-08T15:44:33.815Z,100281.16
2023-04-08T15:47:06.311Z,100278.89
2023-04-08T15:49:39.115Z,100283.93
2023-04-08T15:52:11.959Z,100286.63
2023-04-08T15:54:45.079Z,100288.88
2023-04-08T15:57:18.241Z,100290.00
2023-04-08T15:59:50.516Z,100293.02
2023-04-08T16:02:22.866Z,100296.14
2023-04-08T16:04:55.975Z,100297.87
2023-04-08T16:07:28.466Z,100299.74
2023-04-08T16:10:01.862Z,100295.79
2023-04-08T16:12:34.529Z,100299.15
2023-04-08T16:15:13.893Z,100305.20
2023-04-08T16:17:51.872Z,100302.57
2023-04-08T16:20:24.888Z,100299.75
2023-04-08T16:22:57.150Z,100302.85
2023-04-08T16:25:29.704Z,100300.48
2023-04-08T16:28:01.998Z,100303.30
2023-04-08T16:30:36.454Z,100305.47
2023-04-08T16:33:08.675Z,100301.82
2023-04-08T16:35:41.238Z,100301.24
2023-04-08T16:38:15.228Z,100299.71
2023-04-08T16:40:47.742Z,100303.18
2023-04-08T16:43:20.787Z,100306.02
2023-04-08T16:45:53.617Z,100306.09
2023-04-08T16:48:26.398Z,100301.58
2023-04-08T16:50:58.766Z,100309.70
2023-04-08T16:53:31.040Z,100309.08
2023-04-08T16:56:03.628Z,100309.20
2023-04-08T16:58:36.223Z,100311.48
2023-04-08T17:01:14.189Z,100313.63
2023-04-08T17:03:48.029Z,100318.70
2023-04-08T17:06:20.482Z,100318.89
2023-04-08T17:08:53.190Z,100321.55
2023-04-08T17:11:26.087Z,100325.09
2023-04-08T17:13:58.881Z,100329.38
2023-04-08T17:16:31.354Z,100333.48
2023-04-08T17:19:03.694Z,100337.92
2023-04-08T17:21:36.178Z,100341.11
2023-04-08T17:24:08.886Z,100344.20
2023-04-08T17:26:43.582Z,100343.16
2023-04-08T17:29:15.874Z,100344.30
2023-04-08T17:31:48.232Z,100347.37
2023-04-08T17:34:20.654Z,100346.39
2023-04-08T17:36:53.585Z,100353.02
2023-04-08T17:39:26.366Z,100351.17
2023-04-08T17:41:58.784Z,100351.31
2023-04-08T17:44:31.930Z,100350.74
2023-04-08T17:47:04.353Z,100354.04
2023-04-08T17:49:36.780Z,100351.91
2023-04-08T17:52:09.569Z,100355.80
2023-04-08T17:54:42.012Z,100353.58
2023-04-08T17:57:14.479Z,100354.95
2023-04-08T17:59:46.788Z,100356.94
2023-04-08T18:02:19.218Z,100358.44
2023-04-08T18:04:52.590Z,100360.04
2023-04-08T18:07:25.091Z,100364.98
2023-04-08T18:09:57.329Z,100368.84
2023-04-08T18:12:30.728Z,100367.42
2023-04-08T18:15:03.328Z,100367.02
2023-04-08T18:17:37.530Z,100368.29
2023-04-08T18:20:11.516Z,100366.83
2023-04-08T18:22:43.979Z,100371.95
2023-04-08T18:25:16.518Z,100372.67
2023-04-08T18:27:48.758Z,100373.45
2023-04-08T18:30:20.916Z,100378.67
2023-04-08T18:32:53.194Z,100382.52
2023-04-08T18:35:27.102Z,100386.63
2023-04-08T18:37:59.489Z,100385.10
2023-04-08T18:40:31.656Z,100391.29
2023-04-08T18:43:05.158Z,100394.90
2023-04-08T18:45:37.555Z,100394.94
2023-04-08T18:48:12.395Z,100399.83
2023-04-08T18:50:46.055Z,100402.15
2023-04-08T18:53:18.262Z,100401.25
2023-04-08T18:55:51.395Z,100405.30
2023-04-08T18:58:24.077Z,100407.06
2023-04-08T19:00:56.733Z,100408.38
2023-04-08T19:03:30.538Z,100411.02
2023-04-08T19:06:08.047Z,100407.27
2023-04-08T19:08:40.197Z,100408.13
2023-04-08T19:11:12.559Z,100411.64
2023-04-08T19:13:44.677Z,100411.45
2023-04-08T19:16:17.199Z,100410.05
2023-04-08T19:18:49.404Z,100409.02
2023-04-08T19:21:21.946Z,100411.26
2023-04-08T19:23:54.484Z,100409.33
2023-04-08T19:26:27.033Z,100415.55
2023-04-08T19:28:59.636Z,100415.27
2023-04-08T19:31:31.967Z,100415.53
2023-04-08T19:34:04.475Z,100410.27
2023-04-08T19:36:37.289Z,100415.14
2023-04-08T19:39:09.628Z,100412.11
2023-04-08T19:41:42.330Z,100411.15
2023-04-08T19:44:15.133Z,100410.52
2023-04-08T19:46:47.937Z,100411.55
2023-04-08T19:49:21.895Z,100408.83
2023-04-08T19:51:54.287Z,100412.50
2023-04-08T19:54:26.653Z,100414.58
2023-04-08T19:56:59.623Z,100414.52
2023-04-08T19:59:31.895Z,100415.69
2023-04-08T20:02:05.007Z,100410.02
2023-04-08T20:04:37.634Z,100412.70
2023-04-08T20:07:09.926Z,100411.41
2023-04-08T20:09:42.392Z,100414.24
2023-04-08T20:12:14.673Z,100411.49
2023-04-08T20:14:47.462Z,100407.77
2023-04-08T20:17:20.995Z,100406.97
2023-04-08T20:19:53.430Z,100410.16
2023-04-08T20:22:25.813Z,100402.64
2023-04-08T20:24:59.613Z,100407.30
2023-04-08T20:27:31.885Z,100413.10
2023-04-08T20:30:04.458Z,100415.20
2023-04-08T20:32:36.697Z,100415.73
2023-04-08T20:35:09.635Z,100412.27
2023-04-08T20:37:43.368Z,100413.00
2023-04-08T20:40:18.222Z,100416.71
2023-04-08T20:42:50.766Z,100411.77
2023-04-08T20:45:23.320Z,100412.38
2023-04-08T20:47:55.850Z,100413.71
2023-04-08T20:50:28.711Z,100412.02
2023-04-08T20:53:01.040Z,100409.83
2023-04-08T20:55:33.592Z,100415.98
2023-04-08T20:58:07.759Z,100416.49
2023-04-08T21:00:40.546Z,100413.64
2023-04-08T21:03:13.212Z,100407.36
2023-04-08T21:05:46.957Z,100407.20
2023-04-08T21:08:19.646Z,100404.36
2023-04-08T21:10:52.480Z,100406.33
2023-04-08T21:13:24.944Z,100403.83
2023-04-08T21:15:57.457Z,100411.86
2023-04-08T21:18:29.630Z,100408.75
2023-04-08T21:21:01.966Z,100410.55
2023-04-08T21:23:34.749Z,100409.52
2023-04-08T21:26:11.292Z,100413.91
2023-04-08T21:28:44.193Z,100413.05
2023-04-08T21:31:16.838Z,100412.40
2023-04-08T21:33:49.564Z,100416.23
2023-04-08T21:36:21.891Z,100410.15
2023-04-08T21:38:54.135Z,100404.18
2023-04-08T21:41:28.410Z,100409.26
2023-04-08T21:44:03.038Z,100415.00
2023-04-08T21:46:35.578Z,100422.80
2023-04-08T21:49:08.157Z,100420.95
2023-04-08T21:51:41.094Z,100416.28
2023-04-08T21:54:13.677Z,100406.05
2023-04-08T21:56:45.946Z,100408.54
2023-04-08T21:59:19.362Z,100405.42
2023-04-08T22:01:51.618Z,100409.09
2023-04-08T22:04:27.979Z,100402.90
2023-04-08T22:07:00.247Z,100401.34
2023-04-08T22:09:32.660Z,100408.05
2023-04-08T22:12:05.149Z,100415.93
2023-04-08T22:14:37.380Z,100419.19
2023-04-08T22:17:09.614Z,100422.23
2023-04-08T22:19:41.927Z,100425.30
2023-04-08T22:22:14.021Z,100440.08
2023-04-08T22:24:46.151Z,100444.41
2023-04-08T22:27:18.495Z,100445.27
2023-04-08T22:29:50.841Z,100444.41
2023-04-08T22:32:23.013Z,100442.99
2023-04-08T22:34:55.796Z,100435.23
2023-04-08T22:37:28.123Z,100436.30
2023-04-08T22:40:02.576Z,100439.05
2023-04-08T22:42:34.918Z,100436.55
2023-04-08T22:45:08.533Z,100429.58
2023-04-08T22:47:41.353Z,100432.77
2023-04-08T22:50:14.035Z,100431.39
2023-04-08T22:52:46.163Z,100428.79
2023-04-08T22:55:18.669Z,100432.48
2023-04-08T22:57:50.743Z,100433.95
2023-04-08T23:00:23.598Z,100439.40
2023-04-08T23:02:57.947Z,100443.73
2023-04-08T23:05:30.836Z,100446.36
2023-04-08T23:08:03.066Z,100447.73
2023-04-08T23:10:35.532Z,100450.40
2023-04-08T23:13:07.700Z,100456.92
2023-04-08T23:15:39.816Z,100455.59
2023-04-08T23:18:11.866Z,100454.27
2023-04-08T23:20:47.732Z,100459.37
2023-04-08T23:23:19.884Z,100462.64
2023-04-08T23:25:54.312Z,100459.11
2023-04-08T23:28:27.680Z,100459.52
2023-04-08T23:31:00.112Z,100460.58
2023-04-08T23:33:32.218Z,100463.73
2023-04-08T23:36:07.680Z,100468.61
2023-04-08T23:38:40.130Z,100467.20
2023-04-08T23:41:12.234Z,100475.16
2023-04-08T23:43:44.290Z,100471.80
2023-04-08T23:46:16.941Z,100470.64
2023-04-08T23:48:49.208Z,100469.11
2023-04-08T23:51:21.661Z,100465.38
2023-04-08T23:53:53.770Z,100458.92
2023-04-08T23:56:26.354Z,100461.47
2023-04-08T23:58:58.510Z,100456.75
